sensor_id;sensor_type;location;lat;lon;timestamp;temperature;humidity
2389;DHT22;1205;47.984;7.668;2022-10-15T00:02:09;16.60;99.90
2389;DHT22;1205;47.984;7.668;2022-10-15T00:04:34;16.60;99.90
2389;DHT22;1205;47.984;7.668;2022-10-15T00:07:00;16.60;99.90
2389;DHT22;1205;47.984;7.668;2022-10-15T00:09:26;16.60;99.90
2389;DHT22;1205;47.984;7.668;2022-10-15T00:11:52;16.60;99.90
2389;DHT22;1205;47.984;7.668;2022-10-15T00:14:18;16.60;99.90
2389;DHT22;1205;47.984;7.668;2022-10-15T00:16:44;16.60;99.90
2389;DHT22;1205;47.984;7.668;2022-10-15T00:19:10;16.60;99.90
2389;DHT22;1205;47.984;7.668;2022-10-15T00:21:35;16.60;99.90
2389;DHT22;1205;47.984;7.668;2022-10-15T00:24:01;16.70;99.90
2389;DHT22;1205;47.984;7.668;2022-10-15T00:26:28;16.70;99.90
2389;DHT22;1205;47.984;7.668;2022-10-15T00:28:57;16.70;99.90
2389;DHT22;1205;47.984;7.668;2022-10-15T00:31:24;16.70;99.90
2389;DHT22;1205;47.984;7.668;2022-10-15T00:33:52;17.10;99.90
2389;DHT22;1205;47.984;7.668;2022-10-15T00:36:24;17.20;99.90
2389;DHT22;1205;47.984;7.668;2022-10-15T00:38:50;17.20;99.90
2389;DHT22;1205;47.984;7.668;2022-10-15T00:41:22;17.40;99.90
2389;DHT22;1205;47.984;7.668;2022-10-15T00:43:51;17.50;99.90
2389;DHT22;1205;47.984;7.668;2022-10-15T00:46:37;17.50;99.90
2389;DHT22;1205;47.984;7.668;2022-10-15T00:49:24;17.20;99.90
2389;DHT22;1205;47.984;7.668;2022-10-15T00:51:56;17.00;99.90
2389;DHT22;1205;47.984;7.668;2022-10-15T00:54:22;16.90;99.90
2389;DHT22;1205;47.984;7.668;2022-10-15T00:56:49;16.90;99.90
2389;DHT22;1205;47.984;7.668;2022-10-15T00:59:15;16.80;99.90
2389;DHT22;1205;47.984;7.668;2022-10-15T01:01:43;16.80;99.90
2389;DHT22;1205;47.984;7.668;2022-10-15T01:04:09;16.80;99.90
2389;DHT22;1205;47.984;7.668;2022-10-15T01:06:35;16.80;99.90
2389;DHT22;1205;47.984;7.668;2022-10-15T01:09:01;16.80;99.90
2389;DHT22;1205;47.984;7.668;2022-10-15T01:11:48;16.80;99.90
2389;DHT22;1205;47.984;7.668;2022-10-15T01:19:45;16.70;99.90
2389;DHT22;1205;47.984;7.668;2022-10-15T01:22:51;16.70;99.90
2389;DHT22;1205;47.984;7.668;2022-10-15T01:30:49;16.80;99.90
2389;DHT22;1205;47.984;7.668;2022-10-15T01:36:07;16.80;99.90
2389;DHT22;1205;47.984;7.668;2022-10-15T01:39:08;16.80;99.90
2389;DHT22;1205;47.984;7.668;2022-10-15T01:42:00;16.80;99.90
2389;DHT22;1205;47.984;7.668;2022-10-15T01:44:39;16.80;99.90
2389;DHT22;1205;47.984;7.668;2022-10-15T01:47:21;16.80;99.90
2389;DHT22;1205;47.984;7.668;2022-10-15T01:49:48;16.80;99.90
2389;DHT22;1205;47.984;7.668;2022-10-15T01:52:24;16.80;99.90
2389;DHT22;1205;47.984;7.668;2022-10-15T01:54:52;16.80;99.90
2389;DHT22;1205;47.984;7.668;2022-10-15T01:57:19;16.80;99.90
2389;DHT22;1205;47.984;7.668;2022-10-15T01:59:46;16.70;99.90
2389;DHT22;1205;47.984;7.668;2022-10-15T02:02:12;16.80;99.90
2389;DHT22;1205;47.984;7.668;2022-10-15T02:04:38;16.80;99.90
2389;DHT22;1205;47.984;7.668;2022-10-15T02:07:08;16.80;99.90
2389;DHT22;1205;47.984;7.668;2022-10-15T02:12:46;16.80;99.90
2389;DHT22;1205;47.984;7.668;2022-10-15T02:15:21;16.80;99.90
2389;DHT22;1205;47.984;7.668;2022-10-15T02:20:58;16.70;99.90
2389;DHT22;1205;47.984;7.668;2022-10-15T02:23:31;16.70;99.90
2389;DHT22;1205;47.984;7.668;2022-10-15T02:25:58;16.70;99.90
2389;DHT22;1205;47.984;7.668;2022-10-15T02:28:26;16.70;99.90
2389;DHT22;1205;47.984;7.668;2022-10-15T02:30:55;16.60;99.90
2389;DHT22;1205;47.984;7.668;2022-10-15T02:33:22;16.60;99.90
2389;DHT22;1205;47.984;7.668;2022-10-15T02:35:50;16.60;99.90
2389;DHT22;1205;47.984;7.668;2022-10-15T02:38:18;16.60;99.90
2389;DHT22;1205;47.984;7.668;2022-10-15T02:40:45;16.60;99.90
2389;DHT22;1205;47.984;7.668;2022-10-15T02:43:13;16.60;99.90
2389;DHT22;1205;47.984;7.668;2022-10-15T02:45:39;16.60;99.90
2389;DHT22;1205;47.984;7.668;2022-10-15T02:48:05;16.60;99.90
2389;DHT22;1205;47.984;7.668;2022-10-15T02:50:31;16.60;99.90
2389;DHT22;1205;47.984;7.668;2022-10-15T02:52:57;16.60;99.90
2389;DHT22;1205;47.984;7.668;2022-10-15T02:55:23;16.70;99.90
2389;DHT22;1205;47.984;7.668;2022-10-15T02:57:48;16.60;99.90
2389;DHT22;1205;47.984;7.668;2022-10-15T03:00:14;16.60;99.90
2389;DHT22;1205;47.984;7.668;2022-10-15T03:02:40;16.60;99.90
2389;DHT22;1205;47.984;7.668;2022-10-15T03:05:06;16.60;99.90
2389;DHT22;1205;47.984;7.668;2022-10-15T03:07:32;16.60;99.90
2389;DHT22;1205;47.984;7.668;2022-10-15T03:09:57;16.60;99.90
2389;DHT22;1205;47.984;7.668;2022-10-15T03:12:23;16.60;99.90
2389;DHT22;1205;47.984;7.668;2022-10-15T03:14:50;16.50;99.90
2389;DHT22;1205;47.984;7.668;2022-10-15T03:17:16;16.50;99.90
2389;DHT22;1205;47.984;7.668;2022-10-15T03:19:42;16.60;99.90
2389;DHT22;1205;47.984;7.668;2022-10-15T03:22:08;16.60;99.90
2389;DHT22;1205;47.984;7.668;2022-10-15T03:24:33;16.50;99.90
2389;DHT22;1205;47.984;7.668;2022-10-15T03:26:59;16.50;99.90
2389;DHT22;1205;47.984;7.668;2022-10-15T03:29:24;16.50;99.90
2389;DHT22;1205;47.984;7.668;2022-10-15T03:31:50;16.50;99.90
2389;DHT22;1205;47.984;7.668;2022-10-15T03:34:16;16.50;99.90
2389;DHT22;1205;47.984;7.668;2022-10-15T03:36:42;16.50;99.90
2389;DHT22;1205;47.984;7.668;2022-10-15T03:39:07;16.50;99.90
2389;DHT22;1205;47.984;7.668;2022-10-15T03:41:33;16.40;99.90
2389;DHT22;1205;47.984;7.668;2022-10-15T03:44:03;16.50;99.90
2389;DHT22;1205;47.984;7.668;2022-10-15T03:46:29;16.40;99.90
2389;DHT22;1205;47.984;7.668;2022-10-15T03:48:55;16.50;99.90
2389;DHT22;1205;47.984;7.668;2022-10-15T03:51:21;16.50;99.90
2389;DHT22;1205;47.984;7.668;2022-10-15T03:53:47;16.40;99.90
2389;DHT22;1205;47.984;7.668;2022-10-15T03:56:12;16.50;99.90
2389;DHT22;1205;47.984;7.668;2022-10-15T03:58:38;16.50;99.90
2389;DHT22;1205;47.984;7.668;2022-10-15T04:01:13;16.50;99.90
2389;DHT22;1205;47.984;7.668;2022-10-15T04:03:39;16.50;99.90
2389;DHT22;1205;47.984;7.668;2022-10-15T04:06:05;16.50;99.90
2389;DHT22;1205;47.984;7.668;2022-10-15T04:08:31;16.40;99.90
2389;DHT22;1205;47.984;7.668;2022-10-15T04:10:57;16.40;99.90
2389;DHT22;1205;47.984;7.668;2022-10-15T04:13:27;16.50;99.90
2389;DHT22;1205;47.984;7.668;2022-10-15T04:15:52;16.40;99.90
2389;DHT22;1205;47.984;7.668;2022-10-15T04:18:18;16.40;99.90
2389;DHT22;1205;47.984;7.668;2022-10-15T04:20:46;16.50;99.90
2389;DHT22;1205;47.984;7.668;2022-10-15T04:23:12;16.50;99.90
2389;DHT22;1205;47.984;7.668;2022-10-15T04:25:38;16.50;99.90
2389;DHT22;1205;47.984;7.668;2022-10-15T04:28:04;16.50;99.90
2389;DHT22;1205;47.984;7.668;2022-10-15T04:30:30;16.40;99.90
2389;DHT22;1205;47.984;7.668;2022-10-15T04:32:56;16.50;99.90
2389;DHT22;1205;47.984;7.668;2022-10-15T04:35:21;16.50;99.90
2389;DHT22;1205;47.984;7.668;2022-10-15T04:37:47;16.50;99.90
2389;DHT22;1205;47.984;7.668;2022-10-15T04:40:13;16.50;99.90
2389;DHT22;1205;47.984;7.668;2022-10-15T04:42:39;16.40;99.90
2389;DHT22;1205;47.984;7.668;2022-10-15T04:45:05;16.40;99.90
2389;DHT22;1205;47.984;7.668;2022-10-15T04:47:31;16.40;99.90
2389;DHT22;1205;47.984;7.668;2022-10-15T04:49:57;16.40;99.90
2389;DHT22;1205;47.984;7.668;2022-10-15T04:52:22;16.40;99.90
2389;DHT22;1205;47.984;7.668;2022-10-15T04:54:48;16.40;99.90
2389;DHT22;1205;47.984;7.668;2022-10-15T04:57:13;16.40;99.90
2389;DHT22;1205;47.984;7.668;2022-10-15T04:59:39;16.40;99.90
2389;DHT22;1205;47.984;7.668;2022-10-15T05:02:06;16.40;99.90
2389;DHT22;1205;47.984;7.668;2022-10-15T05:04:32;16.40;99.90
2389;DHT22;1205;47.984;7.668;2022-10-15T05:06:58;16.30;99.90
2389;DHT22;1205;47.984;7.668;2022-10-15T05:09:23;16.40;99.90
2389;DHT22;1205;47.984;7.668;2022-10-15T05:11:49;16.40;99.90
2389;DHT22;1205;47.984;7.668;2022-10-15T05:14:15;16.40;99.90
2389;DHT22;1205;47.984;7.668;2022-10-15T05:16:41;16.40;99.90
2389;DHT22;1205;47.984;7.668;2022-10-15T05:19:07;16.30;99.90
2389;DHT22;1205;47.984;7.668;2022-10-15T05:21:34;16.50;99.90
2389;DHT22;1205;47.984;7.668;2022-10-15T05:24:00;16.40;99.90
2389;DHT22;1205;47.984;7.668;2022-10-15T05:26:28;16.40;99.90
2389;DHT22;1205;47.984;7.668;2022-10-15T05:28:55;16.40;99.90
2389;DHT22;1205;47.984;7.668;2022-10-15T05:31:22;16.50;99.90
2389;DHT22;1205;47.984;7.668;2022-10-15T05:33:50;16.40;99.90
2389;DHT22;1205;47.984;7.668;2022-10-15T05:36:17;16.40;99.90
2389;DHT22;1205;47.984;7.668;2022-10-15T05:38:44;16.40;99.90
2389;DHT22;1205;47.984;7.668;2022-10-15T05:41:10;16.50;99.90
2389;DHT22;1205;47.984;7.668;2022-10-15T05:43:36;16.40;99.90
2389;DHT22;1205;47.984;7.668;2022-10-15T05:46:02;16.50;99.90
2389;DHT22;1205;47.984;7.668;2022-10-15T05:48:27;16.40;99.90
2389;DHT22;1205;47.984;7.668;2022-10-15T05:50:58;16.40;99.90
2389;DHT22;1205;47.984;7.668;2022-10-15T05:53:24;16.40;99.90
2389;DHT22;1205;47.984;7.668;2022-10-15T05:55:52;16.40;99.90
2389;DHT22;1205;47.984;7.668;2022-10-15T05:58:18;16.40;99.90
2389;DHT22;1205;47.984;7.668;2022-10-15T06:00:43;16.50;99.90
2389;DHT22;1205;47.984;7.668;2022-10-15T06:03:12;16.40;99.90
2389;DHT22;1205;47.984;7.668;2022-10-15T06:05:39;16.40;99.90
2389;DHT22;1205;47.984;7.668;2022-10-15T06:08:05;16.50;99.90
2389;DHT22;1205;47.984;7.668;2022-10-15T06:10:33;16.40;99.90
2389;DHT22;1205;47.984;7.668;2022-10-15T06:12:59;16.50;99.90
2389;DHT22;1205;47.984;7.668;2022-10-15T06:15:25;16.50;99.90
2389;DHT22;1205;47.984;7.668;2022-10-15T06:17:52;16.50;99.90
2389;DHT22;1205;47.984;7.668;2022-10-15T06:20:18;16.50;99.90
2389;DHT22;1205;47.984;7.668;2022-10-15T06:22:44;16.50;99.90
2389;DHT22;1205;47.984;7.668;2022-10-15T06:25:09;16.50;99.90
2389;DHT22;1205;47.984;7.668;2022-10-15T06:27:35;16.50;99.90
2389;DHT22;1205;47.984;7.668;2022-10-15T06:30:00;16.50;99.90
2389;DHT22;1205;47.984;7.668;2022-10-15T06:32:26;16.50;99.90
2389;DHT22;1205;47.984;7.668;2022-10-15T06:34:51;16.50;99.90
2389;DHT22;1205;47.984;7.668;2022-10-15T06:37:17;16.50;99.90
2389;DHT22;1205;47.984;7.668;2022-10-15T06:39:43;16.50;99.90
2389;DHT22;1205;47.984;7.668;2022-10-15T06:42:11;16.50;99.90
2389;DHT22;1205;47.984;7.668;2022-10-15T06:44:37;16.60;99.90
2389;DHT22;1205;47.984;7.668;2022-10-15T06:47:02;16.60;99.90
2389;DHT22;1205;47.984;7.668;2022-10-15T06:49:28;16.60;99.90
2389;DHT22;1205;47.984;7.668;2022-10-15T06:51:54;16.70;99.90
2389;DHT22;1205;47.984;7.668;2022-10-15T06:54:19;16.70;99.90
2389;DHT22;1205;47.984;7.668;2022-10-15T06:56:45;16.80;99.90
2389;DHT22;1205;47.984;7.668;2022-10-15T06:59:10;16.80;99.90
2389;DHT22;1205;47.984;7.668;2022-10-15T07:01:36;16.90;99.90
2389;DHT22;1205;47.984;7.668;2022-10-15T07:04:01;16.90;99.90
2389;DHT22;1205;47.984;7.668;2022-10-15T07:06:27;17.00;99.90
2389;DHT22;1205;47.984;7.668;2022-10-15T07:08:52;17.00;99.90
2389;DHT22;1205;47.984;7.668;2022-10-15T07:11:18;17.00;99.90
2389;DHT22;1205;47.984;7.668;2022-10-15T07:13:44;17.10;99.90
2389;DHT22;1205;47.984;7.668;2022-10-15T07:16:11;17.20;99.90
2389;DHT22;1205;47.984;7.668;2022-10-15T07:18:37;17.20;99.90
2389;DHT22;1205;47.984;7.668;2022-10-15T07:21:05;17.20;99.90
2389;DHT22;1205;47.984;7.668;2022-10-15T07:23:31;17.20;99.90
2389;DHT22;1205;47.984;7.668;2022-10-15T07:25:58;17.20;99.90
2389;DHT22;1205;47.984;7.668;2022-10-15T07:28:24;17.20;99.90
2389;DHT22;1205;47.984;7.668;2022-10-15T07:30:50;17.40;99.90
2389;DHT22;1205;47.984;7.668;2022-10-15T07:33:15;17.40;99.90
2389;DHT22;1205;47.984;7.668;2022-10-15T07:35:41;17.50;99.90
2389;DHT22;1205;47.984;7.668;2022-10-15T07:38:07;17.50;99.90
2389;DHT22;1205;47.984;7.668;2022-10-15T07:40:33;17.50;99.90
2389;DHT22;1205;47.984;7.668;2022-10-15T07:42:59;17.50;99.90
2389;DHT22;1205;47.984;7.668;2022-10-15T07:45:26;17.60;99.90
2389;DHT22;1205;47.984;7.668;2022-10-15T07:47:52;17.70;99.90
2389;DHT22;1205;47.984;7.668;2022-10-15T07:50:19;17.80;99.90
2389;DHT22;1205;47.984;7.668;2022-10-15T07:52:45;17.90;99.90
2389;DHT22;1205;47.984;7.668;2022-10-15T07:55:11;17.90;99.90
2389;DHT22;1205;47.984;7.668;2022-10-15T07:57:37;18.00;99.90
2389;DHT22;1205;47.984;7.668;2022-10-15T08:00:04;18.10;99.90
2389;DHT22;1205;47.984;7.668;2022-10-15T08:02:30;18.30;99.90
2389;DHT22;1205;47.984;7.668;2022-10-15T08:04:55;18.40;99.90
2389;DHT22;1205;47.984;7.668;2022-10-15T08:07:21;18.50;99.90
2389;DHT22;1205;47.984;7.668;2022-10-15T08:09:46;18.70;99.90
2389;DHT22;1205;47.984;7.668;2022-10-15T08:12:13;18.70;99.90
2389;DHT22;1205;47.984;7.668;2022-10-15T08:14:38;18.60;99.90
2389;DHT22;1205;47.984;7.668;2022-10-15T08:17:05;18.60;99.90
2389;DHT22;1205;47.984;7.668;2022-10-15T08:19:31;18.30;99.90
2389;DHT22;1205;47.984;7.668;2022-10-15T08:21:56;18.20;99.90
2389;DHT22;1205;47.984;7.668;2022-10-15T08:24:22;18.10;99.90
2389;DHT22;1205;47.984;7.668;2022-10-15T08:26:48;18.20;99.90
2389;DHT22;1205;47.984;7.668;2022-10-15T08:29:14;18.10;99.90
2389;DHT22;1205;47.984;7.668;2022-10-15T08:31:40;18.10;99.90
2389;DHT22;1205;47.984;7.668;2022-10-15T08:34:06;18.00;99.90
2389;DHT22;1205;47.984;7.668;2022-10-15T08:36:31;17.90;99.90
2389;DHT22;1205;47.984;7.668;2022-10-15T08:38:57;17.90;99.90
2389;DHT22;1205;47.984;7.668;2022-10-15T08:44:02;17.80;99.90
2389;DHT22;1205;47.984;7.668;2022-10-15T08:46:32;17.90;99.90
2389;DHT22;1205;47.984;7.668;2022-10-15T08:49:00;17.90;99.90
2389;DHT22;1205;47.984;7.668;2022-10-15T08:51:39;18.00;99.90
2389;DHT22;1205;47.984;7.668;2022-10-15T08:54:05;18.00;99.90
2389;DHT22;1205;47.984;7.668;2022-10-15T08:56:37;18.00;99.90
2389;DHT22;1205;47.984;7.668;2022-10-15T08:59:32;18.10;99.90
2389;DHT22;1205;47.984;7.668;2022-10-15T09:02:34;17.90;99.90
2389;DHT22;1205;47.984;7.668;2022-10-15T09:05:38;17.90;99.90
2389;DHT22;1205;47.984;7.668;2022-10-15T09:10:54;18.00;99.90
2389;DHT22;1205;47.984;7.668;2022-10-15T09:13:27;18.10;99.90
2389;DHT22;1205;47.984;7.668;2022-10-15T09:18:33;18.00;99.90
2389;DHT22;1205;47.984;7.668;2022-10-15T09:21:01;18.10;99.90
2389;DHT22;1205;47.984;7.668;2022-10-15T09:23:28;18.40;99.90
2389;DHT22;1205;47.984;7.668;2022-10-15T09:26:24;18.60;99.90
2389;DHT22;1205;47.984;7.668;2022-10-15T09:31:52;18.90;99.90
2389;DHT22;1205;47.984;7.668;2022-10-15T09:34:50;18.90;99.90
2389;DHT22;1205;47.984;7.668;2022-10-15T09:37:24;18.90;99.90
2389;DHT22;1205;47.984;7.668;2022-10-15T09:40:15;18.80;99.90
2389;DHT22;1205;47.984;7.668;2022-10-15T09:42:48;18.80;99.90
2389;DHT22;1205;47.984;7.668;2022-10-15T09:45:15;18.70;99.90
2389;DHT22;1205;47.984;7.668;2022-10-15T09:47:42;18.90;99.90
2389;DHT22;1205;47.984;7.668;2022-10-15T09:50:10;18.90;99.90
2389;DHT22;1205;47.984;7.668;2022-10-15T09:53:00;18.80;99.90
2389;DHT22;1205;47.984;7.668;2022-10-15T09:58:07;18.60;99.90
2389;DHT22;1205;47.984;7.668;2022-10-15T10:00:56;18.60;99.90
2389;DHT22;1205;47.984;7.668;2022-10-15T10:03:26;18.50;99.90
2389;DHT22;1205;47.984;7.668;2022-10-15T10:06:18;18.50;99.90
2389;DHT22;1205;47.984;7.668;2022-10-15T10:11:19;18.50;99.90
2389;DHT22;1205;47.984;7.668;2022-10-15T10:13:52;18.60;99.90
2389;DHT22;1205;47.984;7.668;2022-10-15T10:16:19;18.60;99.90
2389;DHT22;1205;47.984;7.668;2022-10-15T10:19:02;18.70;99.90
2389;DHT22;1205;47.984;7.668;2022-10-15T10:21:36;18.60;99.90
2389;DHT22;1205;47.984;7.668;2022-10-15T10:24:26;18.70;99.90
2389;DHT22;1205;47.984;7.668;2022-10-15T10:26:55;18.60;99.90
2389;DHT22;1205;47.984;7.668;2022-10-15T10:29:22;18.50;99.90
2389;DHT22;1205;47.984;7.668;2022-10-15T10:31:48;18.70;99.90
2389;DHT22;1205;47.984;7.668;2022-10-15T10:34:23;18.80;99.90
2389;DHT22;1205;47.984;7.668;2022-10-15T10:36:51;18.80;99.90
2389;DHT22;1205;47.984;7.668;2022-10-15T10:39:27;18.90;99.90
2389;DHT22;1205;47.984;7.668;2022-10-15T10:44:34;18.80;99.90
2389;DHT22;1205;47.984;7.668;2022-10-15T10:47:20;18.90;99.90
2389;DHT22;1205;47.984;7.668;2022-10-15T10:49:55;19.00;99.90
2389;DHT22;1205;47.984;7.668;2022-10-15T10:52:25;19.10;99.90
2389;DHT22;1205;47.984;7.668;2022-10-15T10:57:26;19.30;99.90
2389;DHT22;1205;47.984;7.668;2022-10-15T10:59:56;19.50;99.90
2389;DHT22;1205;47.984;7.668;2022-10-15T11:02:21;19.50;99.90
2389;DHT22;1205;47.984;7.668;2022-10-15T11:04:47;19.70;99.90
2389;DHT22;1205;47.984;7.668;2022-10-15T11:07:25;19.70;99.90
2389;DHT22;1205;47.984;7.668;2022-10-15T11:10:00;19.70;99.90
2389;DHT22;1205;47.984;7.668;2022-10-15T11:24:07;20.50;99.90
2389;DHT22;1205;47.984;7.668;2022-10-15T11:26:52;20.60;99.90
2389;DHT22;1205;47.984;7.668;2022-10-15T11:32:19;20.00;99.90
2389;DHT22;1205;47.984;7.668;2022-10-15T11:35:10;19.90;99.90
2389;DHT22;1205;47.984;7.668;2022-10-15T11:38:07;20.00;99.90
2389;DHT22;1205;47.984;7.668;2022-10-15T11:43:35;19.60;99.90
2389;DHT22;1205;47.984;7.668;2022-10-15T11:46:19;19.50;99.90
2389;DHT22;1205;47.984;7.668;2022-10-15T11:54:36;19.30;99.90
2389;DHT22;1205;47.984;7.668;2022-10-15T11:57:04;19.30;99.90
2389;DHT22;1205;47.984;7.668;2022-10-15T11:59:46;19.30;99.90
2389;DHT22;1205;47.984;7.668;2022-10-15T12:04:49;19.40;99.90
2389;DHT22;1205;47.984;7.668;2022-10-15T12:07:30;19.40;99.90
2389;DHT22;1205;47.984;7.668;2022-10-15T12:18:50;19.50;99.90
2389;DHT22;1205;47.984;7.668;2022-10-15T12:23:57;19.40;99.90
2389;DHT22;1205;47.984;7.668;2022-10-15T12:28:51;19.50;99.90
2389;DHT22;1205;47.984;7.668;2022-10-15T12:31:18;19.40;99.90
2389;DHT22;1205;47.984;7.668;2022-10-15T12:33:50;19.50;99.90
2389;DHT22;1205;47.984;7.668;2022-10-15T12:36:25;19.40;99.90
2389;DHT22;1205;47.984;7.668;2022-10-15T12:39:06;19.50;99.90
2389;DHT22;1205;47.984;7.668;2022-10-15T12:41:41;19.50;99.90
2389;DHT22;1205;47.984;7.668;2022-10-15T12:44:29;19.70;99.90
2389;DHT22;1205;47.984;7.668;2022-10-15T12:46:55;19.80;99.90
2389;DHT22;1205;47.984;7.668;2022-10-15T12:51:58;19.60;99.90
2389;DHT22;1205;47.984;7.668;2022-10-15T12:56:59;19.40;99.90
2389;DHT22;1205;47.984;7.668;2022-10-15T13:02:38;19.20;99.90
2389;DHT22;1205;47.984;7.668;2022-10-15T13:05:06;19.20;99.90
2389;DHT22;1205;47.984;7.668;2022-10-15T13:07:36;19.20;99.90
2389;DHT22;1205;47.984;7.668;2022-10-15T13:10:04;19.30;99.90
2389;DHT22;1205;47.984;7.668;2022-10-15T13:12:40;19.30;99.90
2389;DHT22;1205;47.984;7.668;2022-10-15T13:15:09;19.30;99.90
2389;DHT22;1205;47.984;7.668;2022-10-15T13:17:38;19.30;99.90
2389;DHT22;1205;47.984;7.668;2022-10-15T13:20:30;19.30;99.90
2389;DHT22;1205;47.984;7.668;2022-10-15T13:25:40;19.30;99.90
2389;DHT22;1205;47.984;7.668;2022-10-15T13:28:34;19.30;99.90
2389;DHT22;1205;47.984;7.668;2022-10-15T13:31:18;19.40;99.90
2389;DHT22;1205;47.984;7.668;2022-10-15T13:33:48;19.50;99.90
2389;DHT22;1205;47.984;7.668;2022-10-15T13:36:26;19.60;99.90
2389;DHT22;1205;47.984;7.668;2022-10-15T13:38:57;19.70;99.90
2389;DHT22;1205;47.984;7.668;2022-10-15T13:41:28;19.80;99.90
2389;DHT22;1205;47.984;7.668;2022-10-15T13:43:55;19.80;99.90
2389;DHT22;1205;47.984;7.668;2022-10-15T13:46:26;19.80;99.90
2389;DHT22;1205;47.984;7.668;2022-10-15T13:48:57;19.70;99.90
2389;DHT22;1205;47.984;7.668;2022-10-15T13:51:24;19.60;99.90
2389;DHT22;1205;47.984;7.668;2022-10-15T13:53:52;19.60;99.90
2389;DHT22;1205;47.984;7.668;2022-10-15T13:56:30;19.60;99.90
2389;DHT22;1205;47.984;7.668;2022-10-15T13:58:58;19.50;99.90
2389;DHT22;1205;47.984;7.668;2022-10-15T14:01:25;19.50;99.90
2389;DHT22;1205;47.984;7.668;2022-10-15T14:03:59;19.50;99.90
2389;DHT22;1205;47.984;7.668;2022-10-15T14:06:33;19.60;99.90
2389;DHT22;1205;47.984;7.668;2022-10-15T14:09:20;19.60;99.90
2389;DHT22;1205;47.984;7.668;2022-10-15T14:11:54;19.50;99.90
2389;DHT22;1205;47.984;7.668;2022-10-15T14:16:57;19.60;99.90
2389;DHT22;1205;47.984;7.668;2022-10-15T14:19:24;19.60;99.90
2389;DHT22;1205;47.984;7.668;2022-10-15T14:21:58;19.60;99.90
2389;DHT22;1205;47.984;7.668;2022-10-15T14:24:35;19.60;99.90
2389;DHT22;1205;47.984;7.668;2022-10-15T14:27:16;19.60;99.90
2389;DHT22;1205;47.984;7.668;2022-10-15T14:29:47;19.60;99.90
2389;DHT22;1205;47.984;7.668;2022-10-15T14:32:28;19.50;99.90
2389;DHT22;1205;47.984;7.668;2022-10-15T14:35:01;19.50;99.90
2389;DHT22;1205;47.984;7.668;2022-10-15T14:40:15;19.50;99.90
2389;DHT22;1205;47.984;7.668;2022-10-15T14:43:04;19.50;99.90
2389;DHT22;1205;47.984;7.668;2022-10-15T14:45:40;19.50;99.90
2389;DHT22;1205;47.984;7.668;2022-10-15T14:48:19;19.50;99.90
2389;DHT22;1205;47.984;7.668;2022-10-15T14:50:46;19.50;99.90
2389;DHT22;1205;47.984;7.668;2022-10-15T14:53:19;19.50;99.90
2389;DHT22;1205;47.984;7.668;2022-10-15T14:55:50;19.50;99.90
2389;DHT22;1205;47.984;7.668;2022-10-15T14:58:19;19.40;99.90
2389;DHT22;1205;47.984;7.668;2022-10-15T15:00:47;19.40;99.90
2389;DHT22;1205;47.984;7.668;2022-10-15T15:03:18;19.40;99.90
2389;DHT22;1205;47.984;7.668;2022-10-15T15:05:51;19.30;99.90
2389;DHT22;1205;47.984;7.668;2022-10-15T15:08:21;19.30;99.90
2389;DHT22;1205;47.984;7.668;2022-10-15T15:10:48;19.30;99.90
2389;DHT22;1205;47.984;7.668;2022-10-15T15:13:25;19.30;99.90
2389;DHT22;1205;47.984;7.668;2022-10-15T15:15:52;19.30;99.90
2389;DHT22;1205;47.984;7.668;2022-10-15T15:18:18;19.30;99.90
2389;DHT22;1205;47.984;7.668;2022-10-15T15:20:45;19.30;99.90
2389;DHT22;1205;47.984;7.668;2022-10-15T15:23:18;19.20;99.90
2389;DHT22;1205;47.984;7.668;2022-10-15T15:25:45;19.30;99.90
2389;DHT22;1205;47.984;7.668;2022-10-15T15:28:18;19.20;99.90
2389;DHT22;1205;47.984;7.668;2022-10-15T15:30:46;19.10;99.90
2389;DHT22;1205;47.984;7.668;2022-10-15T15:33:15;19.10;99.90
2389;DHT22;1205;47.984;7.668;2022-10-15T15:35:47;19.10;99.90
2389;DHT22;1205;47.984;7.668;2022-10-15T15:38:18;19.10;99.90
2389;DHT22;1205;47.984;7.668;2022-10-15T15:40:44;19.00;99.90
2389;DHT22;1205;47.984;7.668;2022-10-15T15:43:13;19.00;99.90
2389;DHT22;1205;47.984;7.668;2022-10-15T15:45:39;18.90;99.90
2389;DHT22;1205;47.984;7.668;2022-10-15T15:48:05;18.90;99.90
2389;DHT22;1205;47.984;7.668;2022-10-15T15:50:31;18.90;99.90
2389;DHT22;1205;47.984;7.668;2022-10-15T15:52:57;18.90;99.90
2389;DHT22;1205;47.984;7.668;2022-10-15T15:55:22;18.80;99.90
2389;DHT22;1205;47.984;7.668;2022-10-15T15:57:48;18.90;99.90
2389;DHT22;1205;47.984;7.668;2022-10-15T16:00:15;18.80;99.90
2389;DHT22;1205;47.984;7.668;2022-10-15T16:02:41;18.70;99.90
2389;DHT22;1205;47.984;7.668;2022-10-15T16:05:08;18.70;99.90
2389;DHT22;1205;47.984;7.668;2022-10-15T16:07:35;18.70;99.90
2389;DHT22;1205;47.984;7.668;2022-10-15T16:10:01;18.60;99.90
2389;DHT22;1205;47.984;7.668;2022-10-15T16:12:28;18.60;99.90
2389;DHT22;1205;47.984;7.668;2022-10-15T16:14:54;18.60;99.90
2389;DHT22;1205;47.984;7.668;2022-10-15T16:17:20;18.60;99.90
2389;DHT22;1205;47.984;7.668;2022-10-15T16:19:45;18.50;99.90
2389;DHT22;1205;47.984;7.668;2022-10-15T16:22:11;18.50;99.90
2389;DHT22;1205;47.984;7.668;2022-10-15T16:24:37;18.50;99.90
2389;DHT22;1205;47.984;7.668;2022-10-15T16:27:03;18.40;99.90
2389;DHT22;1205;47.984;7.668;2022-10-15T16:29:28;18.50;99.90
2389;DHT22;1205;47.984;7.668;2022-10-15T16:31:54;18.50;99.90
2389;DHT22;1205;47.984;7.668;2022-10-15T16:34:19;18.50;99.90
2389;DHT22;1205;47.984;7.668;2022-10-15T16:36:45;18.50;99.90
2389;DHT22;1205;47.984;7.668;2022-10-15T16:39:11;18.50;99.90
2389;DHT22;1205;47.984;7.668;2022-10-15T16:41:36;18.40;99.90
2389;DHT22;1205;47.984;7.668;2022-10-15T16:44:02;18.40;99.90
2389;DHT22;1205;47.984;7.668;2022-10-15T16:46:27;18.50;99.90
2389;DHT22;1205;47.984;7.668;2022-10-15T16:48:55;18.40;99.90
2389;DHT22;1205;47.984;7.668;2022-10-15T16:51:21;18.40;99.90
2389;DHT22;1205;47.984;7.668;2022-10-15T16:53:48;18.40;99.90
2389;DHT22;1205;47.984;7.668;2022-10-15T16:56:20;18.40;99.90
2389;DHT22;1205;47.984;7.668;2022-10-15T16:58:46;18.40;99.90
2389;DHT22;1205;47.984;7.668;2022-10-15T17:01:15;18.40;99.90
2389;DHT22;1205;47.984;7.668;2022-10-15T17:03:41;18.40;99.90
2389;DHT22;1205;47.984;7.668;2022-10-15T17:06:10;18.40;99.90
2389;DHT22;1205;47.984;7.668;2022-10-15T17:08:41;18.40;99.90
2389;DHT22;1205;47.984;7.668;2022-10-15T17:11:12;18.40;99.90
2389;DHT22;1205;47.984;7.668;2022-10-15T17:13:39;18.40;99.90
2389;DHT22;1205;47.984;7.668;2022-10-15T17:18:34;18.30;99.90
2389;DHT22;1205;47.984;7.668;2022-10-15T17:21:00;18.30;99.90
2389;DHT22;1205;47.984;7.668;2022-10-15T17:23:25;18.30;99.90
2389;DHT22;1205;47.984;7.668;2022-10-15T17:25:53;18.30;99.90
2389;DHT22;1205;47.984;7.668;2022-10-15T17:28:19;18.20;99.90
2389;DHT22;1205;47.984;7.668;2022-10-15T17:30:44;18.20;99.90
2389;DHT22;1205;47.984;7.668;2022-10-15T17:33:10;18.20;99.90
2389;DHT22;1205;47.984;7.668;2022-10-15T17:35:36;18.20;99.90
2389;DHT22;1205;47.984;7.668;2022-10-15T17:38:02;18.20;99.90
2389;DHT22;1205;47.984;7.668;2022-10-15T17:40:28;18.10;99.90
2389;DHT22;1205;47.984;7.668;2022-10-15T17:42:54;18.00;99.90
2389;DHT22;1205;47.984;7.668;2022-10-15T17:45:21;18.00;99.90
2389;DHT22;1205;47.984;7.668;2022-10-15T17:47:47;18.00;99.90
2389;DHT22;1205;47.984;7.668;2022-10-15T17:50:13;17.90;99.90
2389;DHT22;1205;47.984;7.668;2022-10-15T17:52:40;17.90;99.90
2389;DHT22;1205;47.984;7.668;2022-10-15T17:55:06;17.90;99.90
2389;DHT22;1205;47.984;7.668;2022-10-15T17:57:31;17.90;99.90